Time;durP1;ratioP1;P1;durP2;ratioP2;P2;SDS_P1;SDS_P2;PMS_P1;PMS_P2;Temp;Humidity;BMP_temperature;BMP_pressure;BME280_temperature;BME280_humidity;BME280_pressure;Samples;Min_cycle;Max_cycle;Signal;HPM_P1;HPM_P2
2022/05/24 00:01:00;;;;;;;3.60;1.45;;;;;;;12.54;100.00;99386.63;5153728;27;20057;-85
2022/05/24 00:03:26;;;;;;;7.00;1.67;;;;;;;12.11;100.00;99384.22;5153959;27;20058;-85
2022/05/24 00:05:54;;;;;;;5.10;1.85;;;;;;;12.23;100.00;99406.19;5153681;27;20051;-85
2022/05/24 00:08:21;;;;;;;6.30;2.08;;;;;;;11.89;100.00;99379.50;5139354;27;20043;-85
2022/05/24 00:10:48;;;;;;;4.20;1.42;;;;;;;12.05;100.00;99368.88;5171329;27;20135;-86
2022/05/24 00:13:15;;;;;;;4.65;1.60;;;;;;;12.31;100.00;99394.25;5154933;27;20051;-85
2022/05/24 00:15:42;;;;;;;5.43;1.67;;;;;;;12.27;100.00;99394.53;5153285;27;20049;-85
2022/05/24 00:18:14;;;;;;;7.20;1.75;;;;;;;12.37;100.00;99403.50;5154855;27;20057;-85
2022/05/24 00:20:48;;;;;;;3.90;1.58;;;;;;;12.45;100.00;99398.59;5153701;27;20046;-85
2022/05/24 00:23:15;;;;;;;5.38;1.55;;;;;;;12.64;100.00;99392.09;5138263;27;20051;-85
2022/05/24 00:25:46;;;;;;;4.68;1.70;;;;;;;12.22;100.00;99373.03;5154668;27;20042;-85
2022/05/24 00:28:15;;;;;;;7.20;1.80;;;;;;;12.06;100.00;99381.06;5132817;27;20481;-85
2022/05/24 00:30:45;;;;;;;4.75;1.65;;;;;;;12.56;100.00;99397.03;5141654;27;20403;-85
2022/05/24 00:33:13;;;;;;;3.97;1.70;;;;;;;12.20;100.00;99369.66;5152830;27;20042;-85
2022/05/24 00:35:41;;;;;;;5.13;1.27;;;;;;;12.39;100.00;99371.91;5152939;27;20085;-85
2022/05/24 00:38:11;;;;;;;5.28;1.60;;;;;;;12.33;100.00;99381.84;5152600;27;20043;-85
2022/05/24 00:40:59;;;;;;;3.13;1.35;;;;;;;12.15;100.00;99360.31;5147123;27;20547;-84
2022/05/24 00:43:50;;;;;;;5.35;1.60;;;;;;;12.23;100.00;99386.03;5138756;27;20430;-85
2022/05/24 00:46:25;;;;;;;4.43;1.45;;;;;;;12.11;100.00;99371.09;5146479;27;20043;-85
2022/05/24 00:48:56;;;;;;;4.25;1.40;;;;;;;12.53;100.00;99391.03;5153094;27;20055;-85
2022/05/24 00:51:47;;;;;;;5.97;2.00;;;;;;;12.28;100.00;99377.88;5152782;27;20480;-85
2022/05/24 00:54:15;;;;;;;5.53;1.60;;;;;;;12.15;100.00;99381.28;5152582;27;20061;-85
2022/05/24 00:57:00;;;;;;;5.50;1.60;;;;;;;11.97;100.00;99385.13;5151634;27;20046;-85
2022/05/24 00:59:31;;;;;;;4.15;1.70;;;;;;;12.13;100.00;99388.44;5151604;27;20799;-85
2022/05/24 01:01:58;;;;;;;6.72;1.55;;;;;;;11.89;100.00;99375.09;5154161;27;20345;-85
2022/05/24 01:04:25;;;;;;;6.20;1.50;;;;;;;12.07;100.00;99378.31;5152596;27;20474;-85
2022/05/24 01:06:52;;;;;;;4.65;1.40;;;;;;;11.82;100.00;99388.72;5142496;27;20400;-85
2022/05/24 01:09:30;;;;;;;5.88;2.13;;;;;;;11.95;100.00;99377.38;5142257;27;20126;-85
2022/05/24 01:12:06;;;;;;;5.05;1.73;;;;;;;11.87;100.00;99366.47;5153586;27;20400;-85
2022/05/24 01:14:33;;;;;;;6.00;1.58;;;;;;;11.91;100.00;99361.91;5152936;27;20130;-85
2022/05/24 01:17:00;;;;;;;3.55;1.20;;;;;;;12.05;100.00;99358.38;5142724;27;20499;-85
2022/05/24 01:19:48;;;;;;;4.70;1.52;;;;;;;12.04;100.00;99369.81;5140902;27;20125;-85
2022/05/24 01:22:27;;;;;;;4.75;1.35;;;;;;;12.06;100.00;99384.53;5152819;27;20883;-85
2022/05/24 01:25:04;;;;;;;5.63;1.77;;;;;;;11.90;100.00;99371.56;5152837;27;20049;-85
2022/05/24 01:27:31;;;;;;;6.13;1.67;;;;;;;11.74;100.00;99363.00;5145441;27;20046;-85
2022/05/24 01:29:58;;;;;;;4.97;1.30;;;;;;;11.79;100.00;99366.13;5151968;27;20046;-85
2022/05/24 01:37:57;;;;;;;4.45;1.40;;;;;;;11.76;100.00;99368.97;5149531;27;20049;-85
2022/05/24 01:40:24;;;;;;;5.22;1.33;;;;;;;11.61;100.00;99365.53;5132082;27;20057;-84
2022/05/24 01:42:50;;;;;;;4.45;1.60;;;;;;;11.26;100.00;99318.84;5131580;27;20098;-85
2022/05/24 01:45:23;;;;;;;7.93;1.70;;;;;;;11.70;100.00;99362.31;5132041;27;20050;-85
2022/05/24 01:47:57;;;;;;;5.57;1.40;;;;;;;11.60;100.00;99358.63;5149838;27;20104;-85
2022/05/24 01:50:26;;;;;;;5.60;1.50;;;;;;;11.53;100.00;99334.56;5152905;27;20042;-85
2022/05/24 01:52:57;;;;;;;5.65;1.60;;;;;;;11.63;100.00;99349.72;5152068;27;20052;-85
2022/05/24 01:55:34;;;;;;;5.30;1.55;;;;;;;11.69;100.00;99367.69;5136379;27;20051;-85
2022/05/24 01:58:10;;;;;;;5.70;1.42;;;;;;;11.68;100.00;99374.69;5149538;27;20061;-85
2022/05/24 02:00:37;;;;;;;3.20;1.33;;;;;;;11.68;100.00;99374.69;5149483;27;20098;-85
2022/05/24 02:03:04;;;;;;;5.97;1.60;;;;;;;11.16;100.00;99351.78;5151223;27;20043;-85
2022/05/24 02:05:37;;;;;;;4.18;1.60;;;;;;;11.32;100.00;99378.69;5153108;27;20046;-85
2022/05/24 02:08:08;;;;;;;5.03;1.90;;;;;;;11.54;100.00;99374.72;5149847;27;20472;-85
2022/05/24 02:11:02;;;;;;;5.85;1.60;;;;;;;11.57;100.00;99380.63;5139614;27;20476;-85
2022/05/24 02:13:39;;;;;;;5.28;1.58;;;;;;;11.45;100.00;99367.44;5139988;27;20129;-85
2022/05/24 02:16:21;;;;;;;4.20;1.45;;;;;;;11.86;100.00;99372.66;5137154;27;20529;-85
2022/05/24 02:18:51;;;;;;;7.78;1.77;;;;;;;11.49;100.00;99367.16;5152548;27;20055;-85
2022/05/24 02:21:18;;;;;;;6.85;1.77;;;;;;;11.12;100.00;99348.50;5151880;27;20046;-85
2022/05/24 02:23:49;;;;;;;4.03;1.60;;;;;;;11.31;100.00;99342.94;5151756;27;20053;-83
2022/05/24 02:26:21;;;;;;;4.13;1.58;;;;;;;11.33;100.00;99346.31;5148841;27;20047;-83
2022/05/24 02:28:54;;;;;;;4.47;1.70;;;;;;;11.51;100.00;99360.03;5144325;27;20046;-84
2022/05/24 02:31:23;;;;;;;4.57;1.42;;;;;;;11.63;100.00;99370.69;5153348;27;20051;-84
2022/05/24 02:33:50;;;;;;;3.63;1.60;;;;;;;11.67;100.00;99344.19;5152104;27;20133;-85
2022/05/24 02:36:18;;;;;;;3.20;1.30;;;;;;;11.72;100.00;99341.25;5133395;27;20051;-85
2022/05/24 02:38:45;;;;;;;6.80;2.10;;;;;;;11.58;100.00;99356.09;5150505;27;20067;-85
2022/05/24 02:41:31;;;;;;;5.10;1.40;;;;;;;11.32;100.00;99349.03;5151850;27;20073;-85
2022/05/24 02:44:13;;;;;;;4.57;1.38;;;;;;;11.23;100.00;99337.34;5152682;27;20039;-82
2022/05/24 02:46:43;;;;;;;3.35;1.40;;;;;;;11.25;100.00;99363.47;5147948;27;20039;-84
2022/05/24 02:49:10;;;;;;;5.45;1.60;;;;;;;10.99;100.00;99284.72;5149467;27;20041;-84
2022/05/24 02:51:38;;;;;;;5.65;1.60;;;;;;;10.96;100.00;99311.94;5152887;27;20061;-84
2022/05/24 02:54:07;;;;;;;4.07;1.85;;;;;;;11.29;100.00;99360.53;5151500;27;20057;-84
2022/05/24 02:56:34;;;;;;;6.60;1.60;;;;;;;10.99;100.00;99314.34;5148529;27;20047;-84
2022/05/24 02:59:01;;;;;;;4.25;1.50;;;;;;;11.21;100.00;99331.38;5150405;27;20054;-84
2022/05/24 03:01:29;;;;;;;4.25;1.40;;;;;;;11.12;100.00;99340.66;5150644;27;20054;-85
2022/05/24 03:03:57;;;;;;;4.93;1.60;;;;;;;11.11;100.00;99335.50;5150399;27;20181;-86
2022/05/24 03:06:25;;;;;;;6.95;1.67;;;;;;;11.19;100.00;99331.47;5145951;27;20122;-85
2022/05/24 03:14:24;;;;;;;6.28;1.55;;;;;;;11.19;100.00;99341.94;5155840;27;20126;-85
2022/05/24 03:16:56;;;;;;;3.97;1.50;;;;;;;11.14;100.00;99338.78;5144635;27;20579;-85
2022/05/24 03:19:23;;;;;;;4.22;1.40;;;;;;;10.82;100.00;99299.69;5145365;27;20125;-86
2022/05/24 03:21:50;;;;;;;2.63;1.38;;;;;;;11.30;100.00;99361.41;5156257;27;20407;-85
2022/05/24 03:24:17;;;;;;;5.50;1.80;;;;;;;11.26;100.00;99355.50;5154908;27;20073;-84
2022/05/24 03:26:44;;;;;;;4.95;1.63;;;;;;;11.50;100.00;99354.91;5153534;27;20043;-85
2022/05/24 03:29:11;;;;;;;4.90;1.40;;;;;;;11.58;100.00;99355.25;5149423;27;20039;-85
2022/05/24 03:31:38;;;;;;;4.57;1.50;;;;;;;11.58;100.00;99355.25;5135773;27;20403;-84
2022/05/24 03:34:05;;;;;;;5.30;1.40;;;;;;;11.59;100.00;99363.00;5135619;27;20618;-84
2022/05/24 03:36:32;;;;;;;4.65;1.67;;;;;;;11.49;100.00;99354.06;5139903;27;20403;-84
2022/05/24 03:38:59;;;;;;;4.82;1.38;;;;;;;11.29;100.00;99352.69;5146914;27;20563;-84
2022/05/24 03:41:26;;;;;;;4.03;1.50;;;;;;;11.40;100.00;99359.88;5134525;27;20055;-85
2022/05/24 03:43:53;;;;;;;4.80;1.77;;;;;;;11.25;100.00;99340.72;5154615;27;20057;-84
2022/05/24 03:46:19;;;;;;;5.32;1.50;;;;;;;11.19;100.00;99357.66;5135394;27;20387;-84
2022/05/24 03:48:46;;;;;;;7.40;2.38;;;;;;;11.34;100.00;99355.84;5134364;27;20555;-84
2022/05/24 03:51:13;;;;;;;4.68;1.52;;;;;;;11.11;100.00;99307.53;5134939;27;20043;-85
2022/05/24 03:53:40;;;;;;;4.25;1.40;;;;;;;11.19;100.00;99325.38;5134721;27;20054;-84
2022/05/24 03:56:07;;;;;;;3.75;1.38;;;;;;;11.26;100.00;99333.69;5139265;27;20043;-84
2022/05/24 03:58:34;;;;;;;5.30;1.52;;;;;;;11.18;100.00;99345.50;5144286;27;20419;-84
2022/05/24 04:01:01;;;;;;;5.75;1.58;;;;;;;11.04;100.00;99327.19;5155393;27;20381;-84
2022/05/24 04:03:28;;;;;;;7.25;1.75;;;;;;;11.36;100.00;99338.25;5153427;27;20047;-84
2022/05/24 04:05:55;;;;;;;4.97;1.55;;;;;;;11.32;100.00;99368.22;5134213;27;20046;-84
2022/05/24 04:08:26;;;;;;;2.90;1.50;;;;;;;11.62;100.00;99369.84;5152809;27;20043;-84
2022/05/24 04:11:03;;;;;;;3.72;1.48;;;;;;;11.46;100.00;99362.13;5153763;27;20047;-84
2022/05/24 04:13:31;;;;;;;6.05;1.58;;;;;;;11.55;100.00;99364.16;5153747;27;20558;-84
2022/05/24 04:15:58;;;;;;;4.15;1.50;;;;;;;10.98;100.00;99302.22;5150827;27;20049;-85
2022/05/24 04:18:25;;;;;;;3.75;1.58;;;;;;;11.14;100.00;99316.97;5131801;27;20058;-85
2022/05/24 04:20:52;;;;;;;4.43;1.50;;;;;;;11.42;100.00;99363.25;5132828;27;20047;-85
2022/05/24 04:23:21;;;;;;;3.30;1.30;;;;;;;11.39;100.00;99343.31;5134120;27;20640;-85
2022/05/24 04:25:49;;;;;;;4.53;1.52;;;;;;;10.94;100.00;99341.75;5132291;27;20049;-84
2022/05/24 04:28:18;;;;;;;5.75;1.40;;;;;;;11.19;100.00;99341.94;5134878;27;20779;-84
2022/05/24 04:30:50;;;;;;;6.00;1.60;;;;;;;11.56;100.00;99376.31;5132269;27;20055;-84
2022/05/24 04:33:17;;;;;;;4.45;1.75;;;;;;;11.27;100.00;99374.69;5132486;27;20047;-85
2022/05/24 04:35:44;;;;;;;4.40;1.65;;;;;;;11.34;100.00;99368.13;5134856;27;20396;-85
2022/05/24 04:38:11;;;;;;;9.63;2.17;;;;;;;11.46;100.00;99356.03;5139207;27;20151;-85
2022/05/24 04:43:23;;;;;;;4.90;1.50;;;;;;;11.34;100.00;99353.22;5140421;27;20415;-85
2022/05/24 04:45:53;;;;;;;5.80;1.63;;;;;;;11.53;100.00;99368.66;5132630;27;20047;-84
2022/05/24 04:48:21;;;;;;;5.13;1.52;;;;;;;11.66;100.00;99379.19;5152565;27;20054;-85
2022/05/24 04:50:56;;;;;;;4.85;1.58;;;;;;;11.66;100.00;99352.13;5145575;27;20349;-85
2022/05/24 04:53:25;;;;;;;4.28;1.52;;;;;;;11.59;100.00;99377.91;5153482;27;20046;-85
2022/05/24 04:55:52;;;;;;;5.30;1.73;;;;;;;11.49;100.00;99366.31;5152321;27;20069;-85
2022/05/24 04:58:19;;;;;;;6.30;1.58;;;;;;;11.69;100.00;99351.94;5152368;27;20051;-86
2022/05/24 05:00:48;;;;;;;3.22;1.58;;;;;;;11.70;100.00;99379.84;5133233;27;20051;-85
2022/05/24 05:03:19;;;;;;;5.65;1.60;;;;;;;11.88;100.00;99388.28;5131978;27;20457;-85
2022/05/24 05:05:48;;;;;;;3.75;1.40;;;;;;;11.87;100.00;99357.78;5140086;27;20092;-85
2022/05/24 05:08:16;;;;;;;7.70;1.42;;;;;;;11.90;100.00;99389.06;5143692;27;20042;-85
2022/05/24 05:10:43;;;;;;;6.43;1.70;;;;;;;11.52;100.00;99381.84;5154166;27;20150;-85
2022/05/24 05:13:10;;;;;;;5.63;1.98;;;;;;;11.48;100.00;99380.38;5151854;27;20046;-85
2022/05/24 05:15:37;;;;;;;5.00;1.80;;;;;;;11.74;100.00;99395.28;5152495;27;20052;-85
2022/05/24 05:18:05;;;;;;;4.68;1.48;;;;;;;11.66;100.00;99396.72;5133663;27;20047;-84
2022/05/24 05:20:38;;;;;;;4.07;1.40;;;;;;;12.24;100.00;99395.59;5132170;27;20047;-85
2022/05/24 05:23:12;;;;;;;5.05;1.52;;;;;;;11.92;100.00;99385.44;5131937;27;20047;-84
2022/05/24 05:25:47;;;;;;;5.28;1.42;;;;;;;12.27;100.00;99394.53;5131691;27;20043;-85
2022/05/24 05:28:15;;;;;;;4.82;1.50;;;;;;;12.11;100.00;99369.34;5151178;27;20051;-85
2022/05/24 05:33:27;;;;;;;4.07;1.60;;;;;;;11.91;100.00;99404.72;5139983;27;20047;-84
2022/05/24 05:35:54;;;;;;;6.32;1.80;;;;;;;12.25;100.00;99384.16;5130724;27;20047;-84
2022/05/24 05:38:21;;;;;;;6.43;1.60;;;;;;;12.23;100.00;99379.94;5148408;27;20051;-84
2022/05/24 05:40:53;;;;;;;5.97;2.00;;;;;;;11.96;100.00;99359.84;5131352;27;20050;-84
2022/05/24 05:43:20;;;;;;;7.97;1.55;;;;;;;12.03;100.00;99405.72;5147497;27;20043;-84
2022/05/24 05:45:56;;;;;;;5.68;2.00;;;;;;;12.16;100.00;99426.72;5151958;27;20043;-85
2022/05/24 05:48:23;;;;;;;9.65;2.08;;;;;;;12.21;100.00;99410.69;5131456;27;20112;-85
2022/05/24 05:50:51;;;;;;;6.45;1.65;;;;;;;12.34;100.00;99416.81;5145521;27;20081;-85
2022/05/24 05:53:19;;;;;;;6.68;1.70;;;;;;;12.13;100.00;99427.78;5143396;27;20376;-85
2022/05/24 05:55:45;;;;;;;6.60;2.03;;;;;;;12.41;100.00;99425.13;5141153;27;20595;-85
2022/05/24 05:58:13;;;;;;;6.88;1.75;;;;;;;12.35;100.00;99421.97;5141096;27;20078;-85
2022/05/24 06:00:41;;;;;;;5.72;1.60;;;;;;;12.34;100.00;99420.31;5142660;27;20506;-85
2022/05/24 06:03:09;;;;;;;8.10;1.85;;;;;;;11.92;100.00;99398.53;5142632;27;20039;-85
2022/05/24 06:05:36;;;;;;;5.93;1.50;;;;;;;12.44;100.00;99438.06;5148517;27;20047;-85
2022/05/24 06:08:03;;;;;;;4.85;1.30;;;;;;;12.83;100.00;99431.09;5141382;27;20044;-86
2022/05/24 06:10:31;;;;;;;5.97;1.50;;;;;;;13.15;100.00;99433.31;5145774;27;20042;-89
2022/05/24 06:12:57;;;;;;;1.92;1.20;;;;;;;13.14;100.00;99406.19;5148373;27;20675;-88
2022/05/24 06:15:27;;;;;;;4.93;1.58;;;;;;;12.61;100.00;99429.91;5144807;27;20070;-88
2022/05/24 06:17:54;;;;;;;5.15;1.50;;;;;;;12.27;100.00;99403.28;5140290;27;20078;-87
2022/05/24 06:20:24;;;;;;;6.22;1.92;;;;;;;13.19;100.00;99430.38;5146218;27;20503;-87
2022/05/24 06:22:53;;;;;;;6.18;1.90;;;;;;;12.88;100.00;99439.50;5141567;27;20061;-88
2022/05/24 06:25:28;;;;;;;7.47;2.10;;;;;;;13.04;100.00;99428.78;5144690;27;20058;-87
2022/05/24 06:27:56;;;;;;;4.43;1.60;;;;;;;13.07;100.00;99423.31;5149789;27;20087;-88
2022/05/24 06:30:24;;;;;;;6.25;1.50;;;;;;;13.21;100.00;99424.97;5147285;27;20050;-88
2022/05/24 06:32:51;;;;;;;11.20;1.80;;;;;;;13.18;100.00;99391.03;5146592;27;20047;-87
2022/05/24 06:35:19;;;;;;;7.30;1.40;;;;;;;13.04;100.00;99419.09;5145348;27;20068;-87
2022/05/24 06:37:48;;;;;;;7.35;1.70;;;;;;;13.11;100.00;99401.13;5145761;27;20039;-86
2022/05/24 06:40:18;;;;;;;4.93;1.90;;;;;;;13.29;100.00;99391.13;5144586;27;20055;-89
2022/05/24 06:42:45;;;;;;;5.10;1.60;;;;;;;13.09;100.00;99382.84;5159148;27;20054;-89
2022/05/24 06:45:13;;;;;;;4.55;1.40;;;;;;;13.20;100.00;99418.88;5146159;27;20051;-89
2022/05/24 06:47:40;;;;;;;4.65;1.50;;;;;;;13.22;100.00;99410.91;5143709;27;20039;-88
2022/05/24 06:50:08;;;;;;;7.30;1.60;;;;;;;13.27;100.00;99421.94;5145660;27;20046;-87
2022/05/24 06:52:35;;;;;;;3.22;1.10;;;;;;;13.62;100.00;99422.13;5145141;27;20070;-88
2022/05/24 06:55:02;;;;;;;5.70;1.70;;;;;;;13.00;100.00;99387.91;5144895;27;20046;-87
2022/05/24 06:57:29;;;;;;;4.93;1.50;;;;;;;12.97;100.00;99388.94;5146749;27;20047;-87
2022/05/24 07:02:42;;;;;;;4.82;1.52;;;;;;;14.01;100.00;99448.31;5148668;27;20050;-89
2022/05/24 07:05:14;;;;;;;5.40;1.30;;;;;;;13.95;100.00;99423.28;5144820;27;20061;-88
2022/05/24 07:07:41;;;;;;;4.57;1.13;;;;;;;14.45;100.00;99441.56;5154894;27;20472;-89
2022/05/24 07:10:12;;;;;;;4.90;1.40;;;;;;;14.42;100.00;99426.00;5145511;27;20054;-89
2022/05/24 07:12:39;;;;;;;5.53;2.15;;;;;;;14.38;100.00;99432.44;5149022;27;20096;-89
2022/05/24 07:15:06;;;;;;;4.05;1.50;;;;;;;13.83;100.00;99411.84;5144542;27;20399;-89
2022/05/24 07:17:33;;;;;;;3.67;1.45;;;;;;;13.81;100.00;99441.81;5146889;27;20092;-89
2022/05/24 07:20:00;;;;;;;3.25;1.27;;;;;;;13.99;100.00;99472.09;5155433;27;20050;-89
2022/05/24 07:22:27;;;;;;;6.15;1.50;;;;;;;13.80;100.00;99448.06;5156961;27;20038;-87
2022/05/24 07:24:55;;;;;;;3.42;1.30;;;;;;;13.19;100.00;99446.13;5156489;27;20051;-86
2022/05/24 07:27:22;;;;;;;5.45;1.38;;;;;;;13.30;100.00;99445.38;5144438;27;20050;-86
2022/05/24 07:29:50;;;;;;;5.55;1.10;;;;;;;13.83;100.00;99467.09;5153666;27;20043;-88
2022/05/24 07:32:17;;;;;;;3.75;1.10;;;;;;;13.94;100.00;99449.69;5156140;27;20050;-89
2022/05/24 07:34:43;;;;;;;3.05;0.90;;;;;;;13.48;100.00;99432.78;5156550;27;20043;-89
2022/05/24 07:37:17;;;;;;;4.43;1.10;;;;;;;13.72;100.00;99468.78;5142689;27;20476;-87
2022/05/24 07:39:44;;;;;;;4.13;1.10;;;;;;;14.02;100.00;99465.75;5153355;27;20137;-88
2022/05/24 07:47:42;;;;;;;4.68;1.20;;;;;;;13.88;100.00;99452.75;5137160;27;20047;-88
2022/05/24 07:50:10;;;;;;;6.95;1.30;;;;;;;13.88;100.00;99445.69;5135378;27;20130;-89
2022/05/24 07:52:37;;;;;;;7.35;1.65;;;;;;;13.43;100.00;99417.31;5138958;27;20146;-87
2022/05/24 07:55:06;;;;;;;7.53;1.65;;;;;;;13.88;100.00;99456.22;5146830;27;20445;-89
2022/05/24 07:57:33;;;;;;;5.38;1.20;;;;;;;14.07;100.00;99420.69;5145582;27;20074;-88
2022/05/24 08:00:05;;;;;;;5.28;1.25;;;;;;;13.79;100.00;99441.97;5134262;27;20072;-88
2022/05/24 08:02:33;;;;;;;3.05;1.13;;;;;;;13.64;100.00;99436.00;5139271;27;20134;-87
2022/05/24 08:05:00;;;;;;;3.92;1.33;;;;;;;14.05;100.00;99455.84;5155120;27;20047;-87
2022/05/24 08:07:27;;;;;;;4.25;1.30;;;;;;;14.49;100.00;99450.09;5140517;27;20043;-87
2022/05/24 08:09:54;;;;;;;4.43;1.67;;;;;;;14.46;100.00;99439.78;5155185;27;20073;-87
2022/05/24 08:12:20;;;;;;;5.78;1.25;;;;;;;14.74;100.00;99438.56;5141267;27;20078;-86
2022/05/24 08:14:47;;;;;;;4.82;0.95;;;;;;;15.18;100.00;99439.59;5143117;27;20051;-86
2022/05/24 08:17:15;;;;;;;6.32;1.20;;;;;;;15.07;100.00;99435.16;5142021;27;20048;-85
2022/05/24 08:19:42;;;;;;;4.55;1.13;;;;;;;14.81;100.00;99411.63;5140649;27;20396;-84
2022/05/24 08:22:08;;;;;;;2.55;1.02;;;;;;;15.53;100.00;99470.31;5151439;27;20058;-83
2022/05/24 08:24:35;;;;;;;3.13;1.02;;;;;;;15.18;100.00;99447.53;5146520;27;20050;-89
2022/05/24 08:27:02;;;;;;;4.28;1.10;;;;;;;15.03;100.00;99480.31;5146075;27;20123;-88
2022/05/24 08:29:29;;;;;;;3.17;1.20;;;;;;;15.16;100.00;99457.34;5141420;27;20053;-88
2022/05/24 08:31:56;;;;;;;3.22;1.00;;;;;;;15.04;100.00;99468.84;5148847;27;20130;-88
2022/05/24 08:34:23;;;;;;;5.00;1.20;;;;;;;15.17;100.00;99466.91;5132549;27;20047;-87
2022/05/24 08:36:50;;;;;;;2.90;0.90;;;;;;;15.13;100.00;99481.31;5136442;27;20050;-88
2022/05/24 08:39:16;;;;;;;5.95;1.20;;;;;;;14.75;100.00;99482.38;5144996;27;20396;-88
2022/05/24 08:42:16;;;;;;;3.92;1.20;;;;;;;14.56;100.00;99481.13;5135449;27;20042;-86
2022/05/24 08:50:32;;;;;;;2.72;1.05;;;;;;;14.77;100.00;99488.41;5152544;27;20039;-87
2022/05/24 08:53:10;;;;;;;3.70;0.98;;;;;;;14.91;100.00;99474.16;5153009;27;20081;-88
2022/05/24 08:55:40;;;;;;;3.78;1.00;;;;;;;14.53;100.00;99438.34;5133508;27;20061;-87
2022/05/24 08:58:18;;;;;;;6.68;1.30;;;;;;;14.30;100.00;99480.38;5137723;27;20043;-87
2022/05/24 09:00:46;;;;;;;3.00;1.42;;;;;;;13.96;100.00;99467.03;5132591;27;20059;-89
2022/05/24 09:03:13;;;;;;;7.60;1.40;;;;;;;14.35;100.00;99494.06;5147846;27;20146;-89
2022/05/24 09:05:50;;;;;;;5.82;1.33;;;;;;;14.26;100.00;99467.59;5145850;27;20058;-88
2022/05/24 09:08:26;;;;;;;3.72;1.20;;;;;;;14.71;100.00;99462.50;5141488;27;20428;-89
2022/05/24 09:11:02;;;;;;;4.80;1.00;;;;;;;14.46;100.00;99492.44;5146414;27;20491;-87
2022/05/24 09:13:59;;;;;;;6.28;1.10;;;;;;;14.87;100.00;99492.00;5152477;27;20049;-87
2022/05/24 09:16:35;;;;;;;6.93;1.38;;;;;;;14.30;100.00;99463.75;5134181;27;20469;-87
2022/05/24 09:19:11;;;;;;;5.25;1.20;;;;;;;14.63;100.00;99488.59;5138894;27;20111;-87
2022/05/24 09:21:42;;;;;;;2.47;0.93;;;;;;;15.04;100.00;99496.03;5138003;27;20073;-88
2022/05/24 09:24:41;;;;;;;5.60;1.30;;;;;;;14.64;100.00;99501.63;5146872;27;20080;-87
2022/05/24 09:27:10;;;;;;;3.88;1.10;;;;;;;14.95;100.00;99499.34;5137306;27;20119;-88
2022/05/24 09:29:58;;;;;;;3.67;0.95;;;;;;;15.23;100.00;99452.41;5152453;27;20046;-88
2022/05/24 09:32:39;;;;;;;3.50;1.10;;;;;;;15.58;100.00;99491.88;5153378;27;20082;-87
2022/05/24 09:35:10;;;;;;;4.97;1.30;;;;;;;15.92;100.00;99486.63;5151156;27;20054;-87
2022/05/24 09:37:39;;;;;;;4.38;1.13;;;;;;;15.89;100.00;99492.13;5138262;27;20047;-87
2022/05/24 09:40:17;;;;;;;4.80;1.10;;;;;;;16.05;100.00;99497.88;5144726;27;20047;-87
2022/05/24 09:42:44;;;;;;;4.28;1.00;;;;;;;15.37;99.64;99449.56;5151511;27;20043;-88
2022/05/24 09:45:16;;;;;;;3.30;1.00;;;;;;;15.54;100.00;99493.91;5142502;27;20519;-87
2022/05/24 09:47:42;;;;;;;7.80;1.50;;;;;;;15.47;100.00;99495.34;5147323;27;20043;-87
2022/05/24 09:50:24;;;;;;;3.28;1.00;;;;;;;15.38;100.00;99498.72;5142160;27;20572;-87
2022/05/24 09:53:06;;;;;;;3.55;1.27;;;;;;;15.47;100.00;99495.34;5131437;27;20055;-87
2022/05/24 09:55:42;;;;;;;3.75;1.10;;;;;;;15.35;100.00;99504.22;5131814;27;20047;-87
2022/05/24 09:58:32;;;;;;;3.17;0.95;;;;;;;15.54;99.06;99499.19;5138862;27;20053;-87
2022/05/24 10:01:04;;;;;;;3.88;1.10;;;;;;;15.39;98.07;99500.41;5148459;27;20065;-87
2022/05/24 10:03:43;;;;;;;11.05;1.65;;;;;;;14.86;98.05;99494.78;5130528;27;20047;-87
2022/05/24 10:06:19;;;;;;;5.80;1.33;;;;;;;14.94;99.92;99514.34;5144337;27;20053;-87
2022/05/24 10:08:56;;;;;;;3.53;1.20;;;;;;;15.27;94.03;99509.25;5138253;27;20046;-87
2022/05/24 10:11:34;;;;;;;3.53;0.90;;;;;;;15.81;94.11;99499.81;5131374;28;20074;-87
2022/05/24 10:14:12;;;;;;;3.75;1.05;;;;;;;15.43;97.95;99506.28;5130865;28;20047;-87
2022/05/24 10:16:58;;;;;;;6.78;0.90;;;;;;;15.55;91.17;99516.69;5139412;27;20154;-87
2022/05/24 10:19:30;;;;;;;4.18;0.95;;;;;;;15.53;90.06;99513.34;5150914;27;20046;-87
2022/05/24 10:22:03;;;;;;;5.03;1.23;;;;;;;15.81;88.61;99513.88;5156731;27;20378;-87
2022/05/24 10:24:43;;;;;;;3.80;1.10;;;;;;;15.44;87.69;99485.06;5156096;27;20168;-88
2022/05/24 10:27:28;;;;;;;3.65;0.98;;;;;;;15.35;87.85;99520.91;5152716;27;20569;-87
2022/05/24 10:30:08;;;;;;;2.38;0.90;;;;;;;15.16;87.82;99504.81;5136268;27;20150;-88
2022/05/24 10:38:54;;;;;;;2.35;1.08;;;;;;;15.66;100.00;99522.94;5148805;27;20049;-86
2022/05/24 10:41:26;;;;;;;4.25;1.05;;;;;;;15.42;100.00;99484.31;5155769;27;20046;-87
2022/05/24 10:44:16;;;;;;;2.65;1.00;;;;;;;15.29;100.00;99539.81;5156652;27;20057;-86
2022/05/24 10:46:55;;;;;;;3.25;1.00;;;;;;;15.06;100.00;99506.44;5146606;27;20137;-86
2022/05/24 10:49:22;;;;;;;1.85;0.85;;;;;;;15.76;100.00;99531.88;5136612;27;20047;-87
2022/05/24 10:51:56;;;;;;;3.03;0.90;;;;;;;15.67;100.00;99495.59;5136128;27;20043;-88
2022/05/24 10:54:32;;;;;;;2.60;1.00;;;;;;;16.37;100.00;99531.41;5141876;27;20073;-88
2022/05/24 10:57:14;;;;;;;2.15;0.90;;;;;;;16.23;100.00;99486.78;5146372;27;20039;-88
2022/05/24 10:59:53;;;;;;;3.88;1.30;;;;;;;16.73;100.00;99537.28;5134692;27;20047;-87
2022/05/24 11:02:32;;;;;;;1.98;0.80;;;;;;;17.43;98.95;99527.91;5135097;27;20043;-87
2022/05/24 11:05:06;;;;;;;2.90;0.90;;;;;;;17.54;90.21;99510.28;5135682;27;20043;-87
2022/05/24 11:07:36;;;;;;;4.78;1.42;;;;;;;17.38;85.74;99524.00;5145328;27;20187;-87
2022/05/24 11:10:20;;;;;;;1.55;0.88;;;;;;;16.84;82.36;99547.84;5136178;27;20404;-87
2022/05/24 11:12:50;;;;;;;4.80;1.10;;;;;;;16.49;80.47;99545.44;5134834;27;20057;-88
2022/05/24 11:15:47;;;;;;;3.55;0.90;;;;;;;16.33;83.22;99546.66;5134802;27;20047;-88
2022/05/24 11:18:23;;;;;;;3.67;1.05;;;;;;;16.25;87.39;99538.50;5145214;27;20047;-88
2022/05/24 11:21:11;;;;;;;3.58;0.80;;;;;;;16.30;95.47;99525.78;5135018;27;20047;-88
2022/05/24 11:23:47;;;;;;;3.65;1.10;;;;;;;16.35;98.83;99520.13;5134375;27;20135;-88
2022/05/24 11:26:28;;;;;;;3.35;1.20;;;;;;;16.52;96.13;99553.13;5133402;27;20062;-88
2022/05/24 11:28:58;;;;;;;2.47;1.02;;;;;;;16.24;90.63;99530.72;5148683;27;20043;-88
2022/05/24 11:31:45;;;;;;;6.68;0.93;;;;;;;16.35;92.39;99540.44;5155045;27;20060;-87
2022/05/24 11:34:17;;;;;;;3.28;1.00;;;;;;;15.91;83.34;99543.84;5154046;27;20134;-87
2022/05/24 11:36:48;;;;;;;3.13;1.02;;;;;;;16.37;83.51;99531.41;5146377;27;20420;-88
2022/05/24 11:39:37;;;;;;;3.10;0.90;;;;;;;16.79;81.97;99552.66;5152063;27;20073;-87
2022/05/24 11:42:32;;;;;;;3.58;0.93;;;;;;;17.32;77.84;99572.16;5155786;27;20053;-88
2022/05/24 11:45:19;;;;;;;3.20;0.93;;;;;;;16.69;75.41;99551.72;5154482;27;20046;-88
2022/05/24 11:47:46;;;;;;;4.80;1.00;;;;;;;17.09;78.66;99564.31;5145392;27;20043;-88
2022/05/24 11:50:31;;;;;;;4.10;1.10;;;;;;;16.77;79.84;99569.59;5133512;27;20047;-88
2022/05/24 11:53:01;;;;;;;3.55;0.88;;;;;;;16.32;77.18;99546.78;5148178;27;20047;-87
2022/05/24 11:55:54;;;;;;;2.80;0.90;;;;;;;16.10;74.35;99582.00;5140851;27;20051;-87
2022/05/24 11:58:21;;;;;;;2.95;1.00;;;;;;;16.24;71.95;99580.91;5138056;27;20061;-87
2022/05/24 12:00:57;;;;;;;5.28;0.80;;;;;;;16.44;70.65;99589.88;5146387;27;20042;-87
2022/05/24 12:09:20;;;;;;;1.42;0.77;;;;;;;16.85;92.15;99583.06;5128886;27;20134;-87
2022/05/24 12:11:48;;;;;;;1.65;0.82;;;;;;;16.72;93.07;99543.53;5147227;27;20408;-87
2022/05/24 12:14:24;;;;;;;2.97;0.93;;;;;;;16.14;85.88;99520.88;5149938;27;20391;-87
2022/05/24 12:16:53;;;;;;;1.65;0.80;;;;;;;17.13;94.51;99580.78;5139880;27;20047;-87
2022/05/24 12:19:40;;;;;;;1.60;0.80;;;;;;;16.91;80.46;99574.63;5151126;27;20047;-88
2022/05/24 12:22:11;;;;;;;0.90;0.60;;;;;;;17.02;78.10;99573.75;5153511;27;20482;-86
2022/05/24 12:24:41;;;;;;;2.33;0.80;;;;;;;17.67;77.77;99579.72;5154782;27;20054;-86
2022/05/24 12:27:08;;;;;;;2.75;0.70;;;;;;;17.77;73.00;99577.94;5144087;27;20477;-87
2022/05/24 12:29:35;;;;;;;1.60;0.65;;;;;;;17.91;72.29;99557.44;5153194;27;20051;-87